createdAt,value
2022-10-28T00:04:00.229Z,14.66
2022-10-28T00:08:51.889Z,14.67
2022-10-28T00:13:44.598Z,14.67
2022-10-28T00:18:37.052Z,14.64
2022-10-28T00:23:28.824Z,14.63
2022-10-28T00:28:20.529Z,14.64
2022-10-28T00:33:12.257Z,14.66
2022-10-28T00:38:03.831Z,14.65
2022-10-28T00:42:55.940Z,14.66
2022-10-28T00:47:52.629Z,14.63
2022-10-28T00:52:49.513Z,14.66
2022-10-28T00:57:42.405Z,14.65
2022-10-28T01:02:42.114Z,14.66
2022-10-28T01:07:33.708Z,14.67
2022-10-28T01:13:09.468Z,14.70
2022-10-28T01:18:25.611Z,14.73
2022-10-28T01:24:05.415Z,14.77
2022-10-28T01:29:40.428Z,14.76
2022-10-28T01:34:44.504Z,14.75
2022-10-28T01:40:03.561Z,14.73
2022-10-28T01:45:07.044Z,14.71
2022-10-28T01:50:18.932Z,14.71
2022-10-28T01:55:20.357Z,14.72
2022-10-28T02:00:12.787Z,14.71
2022-10-28T02:05:24.171Z,14.69
2022-10-28T02:10:25.130Z,14.67
2022-10-28T02:15:34.926Z,14.70
2022-10-28T02:20:38.748Z,14.72
2022-10-28T02:25:41.637Z,14.70
2022-10-28T02:30:44.587Z,14.70
2022-10-28T02:35:43.011Z,14.70
2022-10-28T02:40:38.221Z,14.70
2022-10-28T02:45:40.620Z,14.72
2022-10-28T02:50:40.416Z,14.72
2022-10-28T02:55:40.125Z,14.72
2022-10-28T03:00:31.885Z,14.72
2022-10-28T03:05:23.557Z,14.72
2022-10-28T03:10:15.429Z,14.71
2022-10-28T03:15:07.687Z,14.68
2022-10-28T03:19:59.556Z,14.71
2022-10-28T03:24:51.289Z,14.68
2022-10-28T03:29:45.758Z,14.61
2022-10-28T03:34:38.041Z,14.61
2022-10-28T03:39:29.797Z,14.60
2022-10-28T03:44:21.421Z,14.58
2022-10-28T03:49:13.067Z,14.58
2022-10-28T03:54:04.812Z,14.57
2022-10-28T03:58:56.465Z,14.56
2022-10-28T04:03:48.272Z,14.52
2022-10-28T04:08:40.068Z,14.52
2022-10-28T04:13:31.765Z,14.54
2022-10-28T04:18:23.337Z,14.53
2022-10-28T04:23:18.288Z,14.56
2022-10-28T04:28:09.988Z,14.57
2022-10-28T04:33:01.617Z,14.57
2022-10-28T04:37:53.382Z,14.61
2022-10-28T04:42:45.164Z,14.61
2022-10-28T04:47:36.814Z,14.65
2022-10-28T04:52:28.478Z,14.62
2022-10-28T04:57:20.139Z,14.63
2022-10-28T05:02:12.060Z,14.60
2022-10-28T05:07:03.825Z,14.59
2022-10-28T05:11:55.494Z,14.57
2022-10-28T05:16:47.149Z,14.56
2022-10-28T05:21:38.770Z,14.54
2022-10-28T05:26:30.426Z,14.50
2022-10-28T05:31:22.127Z,14.47
2022-10-28T05:36:13.805Z,14.47
2022-10-28T05:41:05.832Z,14.48
2022-10-28T05:45:58.298Z,14.46
2022-10-28T05:50:50.059Z,14.46
2022-10-28T05:55:46.644Z,14.44
2022-10-28T06:00:39.521Z,14.46
2022-10-28T06:05:31.180Z,14.45
2022-10-28T06:10:22.946Z,14.43
2022-10-28T06:15:13.044Z,14.45
2022-10-28T06:20:05.543Z,14.47
2022-10-28T06:24:57.175Z,14.49
2022-10-28T06:29:48.831Z,14.56
2022-10-28T06:34:40.503Z,14.57
2022-10-28T06:39:32.951Z,14.63
2022-10-28T06:44:24.705Z,14.71
2022-10-28T06:49:17.834Z,14.73
2022-10-28T06:54:09.773Z,14.76
2022-10-28T06:59:01.432Z,14.75
2022-10-28T07:03:53.407Z,14.65
2022-10-28T07:08:45.058Z,14.62
2022-10-28T07:13:36.828Z,14.57
2022-10-28T07:18:30.040Z,14.51
2022-10-28T07:23:21.692Z,14.43
2022-10-28T07:28:13.339Z,14.35
2022-10-28T07:33:05.928Z,14.26
2022-10-28T07:37:58.830Z,14.19
2022-10-28T07:42:51.137Z,14.12
2022-10-28T07:47:43.290Z,14.06
2022-10-28T07:52:36.286Z,14.04
2022-10-28T07:57:27.953Z,14.03
2022-10-28T08:02:23.017Z,14.06
2022-10-28T08:07:16.023Z,14.06
2022-10-28T08:12:09.266Z,14.03
2022-10-28T08:17:01.020Z,14.02
2022-10-28T08:21:52.820Z,14.01
2022-10-28T08:26:44.572Z,14.03
2022-10-28T08:31:36.426Z,14.00
2022-10-28T08:36:28.563Z,13.99
2022-10-28T08:41:42.144Z,14.03
2022-10-28T08:46:33.995Z,14.03
2022-10-28T08:51:38.947Z,13.92
2022-10-28T08:56:48.623Z,13.81
2022-10-28T09:01:44.137Z,13.70
2022-10-28T09:06:35.956Z,13.67
2022-10-28T09:11:39.426Z,13.99
2022-10-28T09:16:40.143Z,14.46
2022-10-28T09:22:19.970Z,15.01
2022-10-28T09:27:22.394Z,15.36
2022-10-28T09:32:22.985Z,15.84
2022-10-28T09:37:35.836Z,16.20
2022-10-28T09:42:38.210Z,16.39
2022-10-28T09:47:36.727Z,16.69
2022-10-28T09:52:39.338Z,16.77
2022-10-28T09:57:32.097Z,16.46
2022-10-28T10:02:32.447Z,16.19
2022-10-28T10:07:41.586Z,16.20
2022-10-28T10:12:34.068Z,16.53
2022-10-28T10:17:45.865Z,16.87
2022-10-28T10:22:42.667Z,17.04
2022-10-28T10:27:34.477Z,17.17
2022-10-28T10:32:30.193Z,17.30
2022-10-28T10:37:23.790Z,17.44
2022-10-28T10:42:20.378Z,17.48
2022-10-28T10:47:13.434Z,17.59
2022-10-28T10:52:15.839Z,17.63
2022-10-28T10:57:09.393Z,17.89
2022-10-28T11:02:01.231Z,17.99
2022-10-28T11:06:57.993Z,18.10
2022-10-28T11:11:49.687Z,18.12
2022-10-28T11:16:50.509Z,18.21
2022-10-28T11:21:56.430Z,18.37
2022-10-28T11:27:08.668Z,18.35
2022-10-28T11:32:30.404Z,18.03
2022-10-28T11:37:46.663Z,17.75
2022-10-28T11:43:00.220Z,17.50
2022-10-28T11:48:23.008Z,17.51
2022-10-28T11:53:30.154Z,17.54
2022-10-28T11:59:18.820Z,17.72
2022-10-28T12:04:27.173Z,17.81
2022-10-28T12:09:21.956Z,17.78
2022-10-28T12:14:25.472Z,17.55
2022-10-28T12:19:27.291Z,17.34
2022-10-28T12:24:22.702Z,17.22
2022-10-28T12:29:38.794Z,17.17
2022-10-28T12:39:34.916Z,17.14
2022-10-28T12:44:28.330Z,17.20
2022-10-28T12:49:23.585Z,17.11
2022-10-28T12:54:42.201Z,16.92
2022-10-28T12:59:47.680Z,16.66
2022-10-28T13:04:39.516Z,16.57
2022-10-28T13:09:39.546Z,16.50
2022-10-28T13:14:54.396Z,16.46
2022-10-28T13:20:07.793Z,16.41
2022-10-28T13:25:23.309Z,16.41
2022-10-28T13:30:19.963Z,16.37
2022-10-28T13:35:20.519Z,16.33
2022-10-28T13:40:22.918Z,16.40
2022-10-28T13:45:50.217Z,16.35
2022-10-28T13:50:42.085Z,16.26
2022-10-28T13:55:44.116Z,16.14
2022-10-28T14:00:37.584Z,15.98
2022-10-28T14:05:38.273Z,15.95
2022-10-28T14:10:38.439Z,15.92
2022-10-28T14:15:38.342Z,16.01
2022-10-28T14:20:50.331Z,16.03
2022-10-28T14:25:41.884Z,16.06
2022-10-28T14:30:33.607Z,16.05
2022-10-28T14:35:39.764Z,15.99
2022-10-28T14:40:50.795Z,15.96
2022-10-28T14:46:10.094Z,16.01
2022-10-28T14:51:02.973Z,16.04
2022-10-28T14:55:59.935Z,16.08
2022-10-28T15:01:03.713Z,16.07
2022-10-28T15:05:56.320Z,16.07
2022-10-28T15:10:49.871Z,16.05
2022-10-28T15:15:52.862Z,16.02
2022-10-28T15:20:44.486Z,15.96
2022-10-28T15:25:36.158Z,15.93
2022-10-28T15:30:27.933Z,15.89
2022-10-28T15:35:29.943Z,15.82
2022-10-28T15:40:27.614Z,15.73
2022-10-28T15:45:24.563Z,15.63
2022-10-28T15:50:16.097Z,15.55
2022-10-28T15:55:23.745Z,15.48
2022-10-28T16:00:29.017Z,15.41
2022-10-28T16:05:33.064Z,15.36
2022-10-28T16:10:34.833Z,15.26
2022-10-28T16:15:26.551Z,15.17
2022-10-28T16:20:23.654Z,15.07
2022-10-28T16:25:18.307Z,14.94
2022-10-28T16:30:10.748Z,14.84
2022-10-28T16:35:02.898Z,14.74
2022-10-28T16:39:55.625Z,14.63
2022-10-28T16:44:47.293Z,14.53
2022-10-28T16:49:39.021Z,14.41
2022-10-28T16:54:30.808Z,14.32
2022-10-28T16:59:22.527Z,14.21
2022-10-28T17:04:14.224Z,14.13
2022-10-28T17:09:05.988Z,14.06
2022-10-28T17:13:57.735Z,13.93
2022-10-28T17:18:50.122Z,13.87
2022-10-28T17:23:41.750Z,13.82
2022-10-28T17:28:33.371Z,13.79
2022-10-28T17:33:25.435Z,13.69
2022-10-28T17:38:17.059Z,13.65
2022-10-28T17:43:08.729Z,13.56
2022-10-28T17:48:00.419Z,13.48
2022-10-28T17:52:53.458Z,13.40
2022-10-28T17:57:45.655Z,13.32
2022-10-28T18:02:37.407Z,13.25
2022-10-28T18:07:29.205Z,13.21
2022-10-28T18:12:20.842Z,13.17
2022-10-28T18:17:14.412Z,13.14
2022-10-28T18:22:06.155Z,13.11
2022-10-28T18:26:57.832Z,13.04
2022-10-28T18:31:49.851Z,12.98
2022-10-28T18:36:41.686Z,12.93
2022-10-28T18:41:38.031Z,12.89
2022-10-28T18:46:31.981Z,12.81
2022-10-28T18:51:24.256Z,12.77
2022-10-28T18:56:21.458Z,12.72
2022-10-28T19:01:16.405Z,12.67
2022-10-28T19:06:14.065Z,12.63
2022-10-28T19:11:07.042Z,12.57
2022-10-28T19:15:59.576Z,12.52
2022-10-28T19:20:52.149Z,12.50
2022-10-28T19:25:44.795Z,12.46
2022-10-28T19:30:39.937Z,12.42
2022-10-28T19:35:33.029Z,12.40
2022-10-28T19:40:25.015Z,12.40
2022-10-28T19:45:16.762Z,12.39
2022-10-28T19:50:09.134Z,12.36
2022-10-28T19:55:00.744Z,12.34
2022-10-28T19:59:52.480Z,12.29
2022-10-28T20:04:45.039Z,12.29
2022-10-28T20:09:36.721Z,12.27
2022-10-28T20:14:28.362Z,12.22
2022-10-28T20:19:20.055Z,12.21
2022-10-28T20:24:11.710Z,12.19
2022-10-28T20:29:03.419Z,12.15
2022-10-28T20:33:58.508Z,12.14
2022-10-28T20:38:58.407Z,12.12
2022-10-28T20:43:51.787Z,12.07
2022-10-28T20:48:43.564Z,12.04
2022-10-28T20:53:36.271Z,12.02
2022-10-28T20:58:30.186Z,11.99
2022-10-28T21:03:22.066Z,11.95
2022-10-28T21:08:14.143Z,11.92
2022-10-28T21:13:06.734Z,11.91
2022-10-28T21:17:58.475Z,11.88
2022-10-28T21:22:50.396Z,11.83
2022-10-28T21:27:42.020Z,11.86
2022-10-28T21:32:37.259Z,11.83
2022-10-28T21:37:28.900Z,11.81
2022-10-28T21:42:20.668Z,11.78
2022-10-28T21:47:12.552Z,11.74
2022-10-28T21:52:04.449Z,11.73
2022-10-28T21:56:56.220Z,11.70
2022-10-28T22:01:48.191Z,11.71
2022-10-28T22:06:40.066Z,11.67
2022-10-28T22:11:31.721Z,11.63
2022-10-28T22:16:23.364Z,11.60
2022-10-28T22:21:24.736Z,11.56
2022-10-28T22:26:21.832Z,11.58
2022-10-28T22:31:16.310Z,11.54
2022-10-28T22:36:13.682Z,11.57
2022-10-28T22:41:07.995Z,11.58
2022-10-28T22:46:00.153Z,11.57
2022-10-28T22:50:52.294Z,11.57
2022-10-28T22:55:44.161Z,11.55
2022-10-28T23:00:36.044Z,11.54
2022-10-28T23:05:27.749Z,11.50
2022-10-28T23:10:19.398Z,11.46
2022-10-28T23:15:11.297Z,11.43
2022-10-28T23:20:04.010Z,11.42
2022-10-28T23:24:55.678Z,11.41
2022-10-28T23:29:47.256Z,11.36
2022-10-28T23:34:38.930Z,11.36
2022-10-28T23:39:30.691Z,11.34
2022-10-28T23:44:22.329Z,11.34
2022-10-28T23:49:13.942Z,11.32
2022-10-28T23:54:05.702Z,11.33
2022-10-28T23:58:57.433Z,11.33
